FXD409 KSAV-KLBB
Flight info
| Callsign | FXD409 |
|---|---|
| Flight time | 2h 49m |
| Altitude | 41000 |
| Route | SMALZ WIGVO DBN MINIM SQS J52 TXK SPS |
| Aircraft | C68A/M-SBDGHM1RWXY/LB2 |
Departure
| Time | 2026-04-23 19:31 |
|---|---|
| Airport | Savannah Hilton Head International Airport (KSAV) |
Arrival
| Time | 2026-04-23 22:21 |
|---|---|
| Airport | Lubbock Preston Smith International Airport (KLBB) |
| Time | Latitude | Longitude | Altitude | Speed | Heading |
|---|---|---|---|---|---|
| 2026-04-23 19:22 | 32.12573 | -81.20617 | 47 ft | 0 kts | 0° |
| 2026-04-23 19:27 | 32.12588 | -81.20601 | 46 ft | 9 kts | 66° |
| 2026-04-23 19:27 | 32.12505 | -81.20449 | 48 ft | 16 kts | 90° |
| 2026-04-23 19:28 | 32.12507 | -81.20252 | 47 ft | 9 kts | 89° |
| 2026-04-23 19:28 | 32.12400 | -81.20198 | 45 ft | 14 kts | 180° |
| 2026-04-23 19:29 | 32.12285 | -81.20198 | 47 ft | 19 kts | 179° |
| 2026-04-23 19:29 | 32.11993 | -81.20196 | 46 ft | 21 kts | 179° |
| 2026-04-23 19:30 | 32.11740 | -81.20195 | 48 ft | 15 kts | 180° |
| 2026-04-23 19:30 | 32.11669 | -81.20161 | 44 ft | 11 kts | 101° |
| 2026-04-23 19:30 | 32.11689 | -81.20002 | 44 ft | 6 kts | 13° |
| 2026-04-23 19:31 | 32.11695 | -81.20002 | 44 ft | 1 kts | 2° |
| 2026-04-23 19:31 | 32.12006 | -81.20004 | 42 ft | 95 kts | 359° |
| 2026-04-23 19:31 | 32.12991 | -81.20007 | 121 ft | 182 kts | 360° |
| 2026-04-23 19:31 | 32.14437 | -81.20002 | 757 ft | 234 kts | 1° |
| 2026-04-23 19:32 | 32.16164 | -81.19924 | 1957 ft | 254 kts | 3° |
| 2026-04-23 19:32 | 32.17931 | -81.19849 | 3543 ft | 260 kts | 2° |
| 2026-04-23 19:32 | 32.19754 | -81.19773 | 5098 ft | 262 kts | 2° |
| 2026-04-23 19:32 | 32.21577 | -81.19682 | 6656 ft | 265 kts | 2° |
| 2026-04-23 19:33 | 32.23429 | -81.19848 | 7976 ft | 271 kts | 341° |
| 2026-04-23 19:33 | 32.25046 | -81.20988 | 9304 ft | 275 kts | 316° |
| 2026-04-23 19:33 | 32.27738 | -81.24316 | 11808 ft | 283 kts | 311° |
| 2026-04-23 19:34 | 32.29077 | -81.26035 | 13127 ft | 280 kts | 311° |
| 2026-04-23 19:34 | 32.30366 | -81.27716 | 14461 ft | 278 kts | 311° |
| 2026-04-23 19:34 | 32.32981 | -81.31232 | 16368 ft | 289 kts | 308° |
| 2026-04-23 19:35 | 32.34234 | -81.33122 | 17306 ft | 294 kts | 306° |
| 2026-04-23 19:35 | 32.35487 | -81.35068 | 18266 ft | 299 kts | 307° |
| 2026-04-23 19:35 | 32.36802 | -81.37000 | 19066 ft | 304 kts | 309° |
| 2026-04-23 19:35 | 32.38171 | -81.38929 | 19866 ft | 307 kts | 309° |
| 2026-04-23 19:36 | 32.39521 | -81.40901 | 20649 ft | 310 kts | 308° |
| 2026-04-23 19:36 | 32.40861 | -81.42921 | 21432 ft | 314 kts | 308° |
| 2026-04-23 19:36 | 32.42237 | -81.44948 | 22184 ft | 318 kts | 309° |
| 2026-04-23 19:36 | 32.43623 | -81.46964 | 22919 ft | 321 kts | 309° |
| 2026-04-23 19:37 | 32.45045 | -81.49035 | 23641 ft | 325 kts | 309° |
| 2026-04-23 19:37 | 32.46294 | -81.51281 | 24254 ft | 329 kts | 296° |
| 2026-04-23 19:37 | 32.47101 | -81.53825 | 24882 ft | 332 kts | 284° |
| 2026-04-23 19:37 | 32.47425 | -81.56540 | 25486 ft | 335 kts | 272° |
| 2026-04-23 19:38 | 32.47345 | -81.59312 | 26078 ft | 338 kts | 268° |
| 2026-04-23 19:38 | 32.47249 | -81.62112 | 26664 ft | 341 kts | 268° |
| 2026-04-23 19:38 | 32.47163 | -81.64936 | 27230 ft | 344 kts | 268° |
| 2026-04-23 19:38 | 32.47036 | -81.67776 | 27797 ft | 347 kts | 267° |
| 2026-04-23 19:39 | 32.46923 | -81.70640 | 28361 ft | 349 kts | 268° |
| 2026-04-23 19:39 | 32.46833 | -81.73526 | 28904 ft | 352 kts | 268° |
| 2026-04-23 19:39 | 32.46725 | -81.76432 | 29460 ft | 355 kts | 267° |
| 2026-04-23 19:39 | 32.46609 | -81.79328 | 29959 ft | 357 kts | 267° |
| 2026-04-23 19:40 | 32.46500 | -81.82317 | 30452 ft | 360 kts | 267° |
| 2026-04-23 19:40 | 32.46390 | -81.85250 | 30873 ft | 363 kts | 268° |
| 2026-04-23 19:40 | 32.46276 | -81.88246 | 31285 ft | 366 kts | 268° |
| 2026-04-23 19:40 | 32.46152 | -81.91263 | 31683 ft | 368 kts | 268° |
| 2026-04-23 19:41 | 32.46039 | -81.94306 | 32087 ft | 371 kts | 268° |
| 2026-04-23 19:41 | 32.45936 | -81.97371 | 32469 ft | 374 kts | 268° |
| 2026-04-23 19:41 | 32.45801 | -82.00456 | 32871 ft | 376 kts | 267° |
| 2026-04-23 19:41 | 32.45710 | -82.03562 | 33229 ft | 379 kts | 273° |
| 2026-04-23 19:42 | 32.46056 | -82.06660 | 33586 ft | 381 kts | 280° |
| 2026-04-23 19:42 | 32.46496 | -82.09766 | 33933 ft | 384 kts | 279° |
| 2026-04-23 19:42 | 32.46920 | -82.12903 | 34252 ft | 386 kts | 280° |
| 2026-04-23 19:42 | 32.47349 | -82.16061 | 34540 ft | 388 kts | 279° |
| 2026-04-23 19:43 | 32.47771 | -82.19230 | 34877 ft | 391 kts | 280° |
| 2026-04-23 19:43 | 32.48221 | -82.22410 | 35287 ft | 393 kts | 281° |
| 2026-04-23 19:43 | 32.48660 | -82.25576 | 35635 ft | 396 kts | 280° |
| 2026-04-23 19:43 | 32.49094 | -82.28811 | 35984 ft | 398 kts | 280° |
| 2026-04-23 19:44 | 32.49532 | -82.32068 | 36323 ft | 401 kts | 281° |
| 2026-04-23 19:44 | 32.49986 | -82.35327 | 36647 ft | 403 kts | 280° |
| 2026-04-23 19:44 | 32.50419 | -82.38617 | 36973 ft | 405 kts | 280° |
| 2026-04-23 19:44 | 32.50862 | -82.41924 | 37298 ft | 407 kts | 281° |
| 2026-04-23 19:45 | 32.51321 | -82.45247 | 37607 ft | 410 kts | 281° |
| 2026-04-23 19:45 | 32.51774 | -82.48598 | 37916 ft | 412 kts | 281° |
| 2026-04-23 19:45 | 32.52222 | -82.51972 | 38209 ft | 414 kts | 281° |
| 2026-04-23 19:45 | 32.52674 | -82.55346 | 38486 ft | 417 kts | 281° |
| 2026-04-23 19:46 | 32.53126 | -82.58708 | 38754 ft | 419 kts | 281° |
| 2026-04-23 19:46 | 32.53583 | -82.62130 | 39006 ft | 420 kts | 281° |
| 2026-04-23 19:46 | 32.54037 | -82.65553 | 39266 ft | 421 kts | 281° |
| 2026-04-23 19:46 | 32.54492 | -82.68976 | 39514 ft | 422 kts | 281° |
| 2026-04-23 19:47 | 32.54950 | -82.72421 | 39758 ft | 423 kts | 281° |
| 2026-04-23 19:47 | 32.55407 | -82.75869 | 40001 ft | 424 kts | 281° |
| 2026-04-23 19:47 | 32.55861 | -82.79321 | 40231 ft | 424 kts | 281° |
| 2026-04-23 19:47 | 32.56326 | -82.82779 | 40457 ft | 425 kts | 282° |
| 2026-04-23 19:48 | 32.57029 | -82.86177 | 40677 ft | 425 kts | 286° |
| 2026-04-23 19:48 | 32.57751 | -82.89573 | 40877 ft | 426 kts | 285° |
| 2026-04-23 19:48 | 32.58442 | -82.93002 | 41075 ft | 427 kts | 285° |
| 2026-04-23 19:49 | 32.59901 | -82.99908 | 41077 ft | 433 kts | 285° |
| 2026-04-23 19:49 | 32.61328 | -83.06761 | 41076 ft | 427 kts | 285° |
| 2026-04-23 19:50 | 32.62751 | -83.13578 | 41076 ft | 425 kts | 285° |
| 2026-04-23 19:50 | 32.64173 | -83.20419 | 41077 ft | 428 kts | 285° |
| 2026-04-23 19:51 | 32.65600 | -83.27318 | 41078 ft | 431 kts | 285° |
| 2026-04-23 19:51 | 32.67027 | -83.34214 | 41083 ft | 430 kts | 285° |
| 2026-04-23 19:52 | 32.68442 | -83.41091 | 41084 ft | 429 kts | 285° |
| 2026-04-23 19:52 | 32.69853 | -83.47960 | 41082 ft | 428 kts | 285° |
| 2026-04-23 19:53 | 32.71255 | -83.54811 | 41086 ft | 427 kts | 285° |
| 2026-04-23 19:53 | 32.72648 | -83.61634 | 41099 ft | 428 kts | 285° |
| 2026-04-23 19:54 | 32.74048 | -83.68516 | 41093 ft | 429 kts | 284° |
| 2026-04-23 19:54 | 32.75452 | -83.75433 | 41105 ft | 431 kts | 284° |
| 2026-04-23 19:55 | 32.76853 | -83.82360 | 41093 ft | 432 kts | 284° |
| 2026-04-23 19:55 | 32.78251 | -83.89286 | 41091 ft | 430 kts | 284° |
| 2026-04-23 19:56 | 32.79638 | -83.96191 | 41094 ft | 428 kts | 284° |
| 2026-04-23 19:56 | 32.81008 | -84.03020 | 41090 ft | 427 kts | 284° |
| 2026-04-23 19:57 | 32.82383 | -84.09901 | 41087 ft | 428 kts | 284° |
| 2026-04-23 19:57 | 32.83758 | -84.16802 | 41094 ft | 430 kts | 284° |
| 2026-04-23 19:58 | 32.85134 | -84.23732 | 41101 ft | 431 kts | 284° |
| 2026-04-23 19:58 | 32.86512 | -84.30691 | 41095 ft | 432 kts | 284° |
| 2026-04-23 19:59 | 32.87885 | -84.37642 | 41095 ft | 430 kts | 284° |
| 2026-04-23 19:59 | 32.89247 | -84.44563 | 41098 ft | 428 kts | 284° |
| 2026-04-23 20:00 | 32.90598 | -84.51461 | 41087 ft | 427 kts | 284° |
| 2026-04-23 20:00 | 32.91938 | -84.58303 | 41088 ft | 428 kts | 284° |
| 2026-04-23 20:01 | 32.93287 | -84.65224 | 41090 ft | 430 kts | 284° |
| 2026-04-23 20:01 | 32.94636 | -84.72166 | 41093 ft | 431 kts | 284° |
| 2026-04-23 20:02 | 32.95987 | -84.79139 | 41087 ft | 432 kts | 284° |
| 2026-04-23 20:02 | 32.97330 | -84.86089 | 41081 ft | 429 kts | 284° |
| 2026-04-23 20:03 | 32.98652 | -84.92965 | 41074 ft | 427 kts | 283° |
| 2026-04-23 20:03 | 32.99978 | -84.99867 | 41074 ft | 427 kts | 283° |
| 2026-04-23 20:04 | 33.01300 | -85.06781 | 41077 ft | 429 kts | 283° |
| 2026-04-23 20:04 | 33.02625 | -85.13729 | 41079 ft | 431 kts | 283° |
| 2026-04-23 20:05 | 33.03728 | -85.19528 | 41084 ft | 432 kts | 283° |
| 2026-04-23 20:05 | 33.05274 | -85.27680 | 41085 ft | 430 kts | 283° |
| 2026-04-23 20:06 | 33.06585 | -85.34630 | 41081 ft | 428 kts | 283° |
| 2026-04-23 20:06 | 33.07887 | -85.41542 | 41090 ft | 427 kts | 283° |
| 2026-04-23 20:07 | 33.09175 | -85.48412 | 41089 ft | 428 kts | 283° |
| 2026-04-23 20:07 | 33.10476 | -85.55366 | 41086 ft | 430 kts | 283° |
| 2026-04-23 20:08 | 33.11778 | -85.62344 | 41089 ft | 431 kts | 283° |
| 2026-04-23 20:08 | 33.13075 | -85.69326 | 41087 ft | 431 kts | 283° |
| 2026-04-23 20:09 | 33.14364 | -85.76287 | 41081 ft | 429 kts | 283° |
| 2026-04-23 20:09 | 33.15645 | -85.83226 | 41082 ft | 428 kts | 283° |
| 2026-04-23 20:10 | 33.16704 | -85.88985 | 41078 ft | 427 kts | 282° |
| 2026-04-23 20:10 | 33.18180 | -85.97030 | 41071 ft | 427 kts | 282° |
| 2026-04-23 20:11 | 33.19450 | -86.03974 | 41082 ft | 429 kts | 282° |
| 2026-04-23 20:11 | 33.20718 | -86.10945 | 41084 ft | 430 kts | 282° |
| 2026-04-23 20:12 | 33.21990 | -86.17942 | 41082 ft | 430 kts | 282° |
| 2026-04-23 20:12 | 33.23242 | -86.24870 | 41084 ft | 428 kts | 282° |
| 2026-04-23 20:13 | 33.24494 | -86.31806 | 41083 ft | 426 kts | 282° |
| 2026-04-23 20:13 | 33.25737 | -86.38733 | 41077 ft | 427 kts | 282° |
| 2026-04-23 20:14 | 33.26985 | -86.45689 | 41081 ft | 428 kts | 282° |
| 2026-04-23 20:14 | 33.28019 | -86.51488 | 41073 ft | 429 kts | 282° |
| 2026-04-23 20:15 | 33.29264 | -86.58478 | 41067 ft | 430 kts | 282° |
| 2026-04-23 20:15 | 33.30505 | -86.65462 | 41075 ft | 428 kts | 282° |
| 2026-04-23 20:16 | 33.31714 | -86.72316 | 41062 ft | 426 kts | 281° |
| 2026-04-23 20:16 | 33.32935 | -86.79233 | 41070 ft | 425 kts | 281° |
| 2026-04-23 20:17 | 33.34149 | -86.86165 | 41079 ft | 427 kts | 281° |
| 2026-04-23 20:17 | 33.35369 | -86.93126 | 41072 ft | 428 kts | 281° |
| 2026-04-23 20:18 | 33.36586 | -87.00109 | 41078 ft | 429 kts | 281° |
| 2026-04-23 20:18 | 33.37802 | -87.07101 | 41069 ft | 427 kts | 281° |
| 2026-04-23 20:19 | 33.39004 | -87.14048 | 41054 ft | 425 kts | 281° |
| 2026-04-23 20:19 | 33.40190 | -87.20925 | 41035 ft | 425 kts | 281° |
| 2026-04-23 20:20 | 33.41385 | -87.27865 | 41022 ft | 427 kts | 281° |
| 2026-04-23 20:20 | 33.42579 | -87.34843 | 41013 ft | 428 kts | 281° |
| 2026-04-23 20:21 | 33.43774 | -87.41833 | 41016 ft | 428 kts | 281° |
| 2026-04-23 20:21 | 33.44959 | -87.48806 | 41022 ft | 426 kts | 281° |
| 2026-04-23 20:22 | 33.46136 | -87.55743 | 41014 ft | 424 kts | 281° |
| 2026-04-23 20:22 | 33.47302 | -87.62653 | 41011 ft | 424 kts | 281° |
| 2026-04-23 20:23 | 33.48471 | -87.69581 | 41013 ft | 425 kts | 281° |
| 2026-04-23 20:23 | 33.49627 | -87.76485 | 41021 ft | 426 kts | 281° |
| 2026-04-23 20:24 | 33.50794 | -87.83466 | 41021 ft | 427 kts | 281° |
| 2026-04-23 20:24 | 33.51955 | -87.90445 | 41024 ft | 426 kts | 281° |
| 2026-04-23 20:25 | 33.53107 | -87.97385 | 41021 ft | 423 kts | 280° |
| 2026-04-23 20:25 | 33.54067 | -88.04296 | 41017 ft | 421 kts | 273° |
| 2026-04-23 20:26 | 33.53991 | -88.11326 | 41022 ft | 423 kts | 268° |
| 2026-04-23 20:26 | 33.53803 | -88.18392 | 41021 ft | 425 kts | 268° |
| 2026-04-23 20:27 | 33.53631 | -88.25496 | 41011 ft | 426 kts | 268° |
| 2026-04-23 20:27 | 33.53422 | -88.32586 | 41012 ft | 424 kts | 268° |
| 2026-04-23 20:28 | 33.53227 | -88.39582 | 41011 ft | 421 kts | 268° |
| 2026-04-23 20:28 | 33.53022 | -88.46596 | 41011 ft | 421 kts | 268° |
| 2026-04-23 20:29 | 33.52814 | -88.53631 | 41058 ft | 423 kts | 268° |
| 2026-04-23 20:29 | 33.52600 | -88.60683 | 41061 ft | 424 kts | 268° |
| 2026-04-23 20:30 | 33.52383 | -88.67777 | 41064 ft | 425 kts | 268° |
| 2026-04-23 20:30 | 33.52051 | -88.78356 | 41056 ft | 422 kts | 268° |
| 2026-04-23 20:31 | 33.51824 | -88.85366 | 41053 ft | 420 kts | 268° |
| 2026-04-23 20:31 | 33.51594 | -88.92364 | 41047 ft | 421 kts | 268° |
| 2026-04-23 20:32 | 33.51362 | -88.99376 | 41042 ft | 422 kts | 268° |
| 2026-04-23 20:32 | 33.51122 | -89.06412 | 41038 ft | 423 kts | 267° |
| 2026-04-23 20:33 | 33.50882 | -89.13410 | 41042 ft | 424 kts | 267° |
| 2026-04-23 20:33 | 33.50636 | -89.20456 | 41038 ft | 422 kts | 267° |
| 2026-04-23 20:34 | 33.50385 | -89.27469 | 41035 ft | 420 kts | 267° |
| 2026-04-23 20:34 | 33.50134 | -89.34460 | 41029 ft | 419 kts | 267° |
| 2026-04-23 20:35 | 33.49877 | -89.41433 | 41024 ft | 418 kts | 267° |
| 2026-04-23 20:35 | 33.49617 | -89.48406 | 41026 ft | 419 kts | 267° |
| 2026-04-23 20:36 | 33.49354 | -89.55389 | 41026 ft | 420 kts | 267° |
| 2026-04-23 20:36 | 33.49085 | -89.62387 | 41026 ft | 421 kts | 267° |
| 2026-04-23 20:37 | 33.48830 | -89.69400 | 41020 ft | 421 kts | 267° |
| 2026-04-23 20:37 | 33.48529 | -89.76349 | 41014 ft | 419 kts | 267° |
| 2026-04-23 20:38 | 33.48261 | -89.83322 | 41008 ft | 418 kts | 267° |
| 2026-04-23 20:38 | 33.47975 | -89.90249 | 41006 ft | 416 kts | 267° |
| 2026-04-23 20:39 | 33.47691 | -89.97176 | 41003 ft | 416 kts | 267° |
| 2026-04-23 20:39 | 33.47400 | -90.04122 | 41003 ft | 418 kts | 267° |
| 2026-04-23 20:40 | 33.47106 | -90.11079 | 41007 ft | 419 kts | 267° |
| 2026-04-23 20:40 | 33.46809 | -90.18014 | 41006 ft | 420 kts | 267° |
| 2026-04-23 20:41 | 33.46506 | -90.24992 | 41007 ft | 418 kts | 267° |
| 2026-04-23 20:41 | 33.46525 | -90.31940 | 41003 ft | 416 kts | 272° |
| 2026-04-23 20:42 | 33.46687 | -90.38862 | 41001 ft | 415 kts | 271° |
| 2026-04-23 20:42 | 33.46891 | -90.45757 | 40997 ft | 415 kts | 272° |
| 2026-04-23 20:43 | 33.47070 | -90.52683 | 40993 ft | 416 kts | 272° |
| 2026-04-23 20:43 | 33.47254 | -90.59632 | 40989 ft | 418 kts | 272° |
| 2026-04-23 20:44 | 33.47431 | -90.66551 | 40988 ft | 418 kts | 272° |
| 2026-04-23 20:44 | 33.47604 | -90.73500 | 40985 ft | 417 kts | 272° |
| 2026-04-23 20:45 | 33.47775 | -90.80438 | 40979 ft | 415 kts | 272° |
| 2026-04-23 20:45 | 33.47940 | -90.87337 | 40985 ft | 414 kts | 272° |
| 2026-04-23 20:46 | 33.48101 | -90.94231 | 40975 ft | 414 kts | 272° |
| 2026-04-23 20:46 | 33.48260 | -91.01149 | 40978 ft | 416 kts | 272° |
| 2026-04-23 20:47 | 33.48413 | -91.08036 | 40980 ft | 417 kts | 272° |
| 2026-04-23 20:47 | 33.48564 | -91.14983 | 40979 ft | 417 kts | 272° |
| 2026-04-23 20:48 | 33.48710 | -91.21907 | 40979 ft | 415 kts | 272° |
| 2026-04-23 20:48 | 33.48853 | -91.28808 | 40978 ft | 413 kts | 272° |
| 2026-04-23 20:49 | 33.48990 | -91.35687 | 40975 ft | 412 kts | 272° |
| 2026-04-23 20:49 | 33.49126 | -91.42550 | 40976 ft | 413 kts | 272° |
| 2026-04-23 20:50 | 33.49255 | -91.49396 | 40974 ft | 414 kts | 272° |
| 2026-04-23 20:50 | 33.49383 | -91.56308 | 40973 ft | 415 kts | 272° |
| 2026-04-23 20:51 | 33.49506 | -91.63228 | 40977 ft | 415 kts | 272° |
| 2026-04-23 20:51 | 33.49625 | -91.70136 | 40975 ft | 413 kts | 272° |
| 2026-04-23 20:52 | 33.49740 | -91.76957 | 40975 ft | 411 kts | 271° |
| 2026-04-23 20:52 | 33.49850 | -91.83794 | 40970 ft | 410 kts | 271° |
| 2026-04-23 20:53 | 33.49958 | -91.90628 | 40966 ft | 411 kts | 271° |
| 2026-04-23 20:53 | 33.50061 | -91.97469 | 40964 ft | 411 kts | 271° |
| 2026-04-23 20:54 | 33.50161 | -92.04324 | 40962 ft | 412 kts | 271° |
| 2026-04-23 20:54 | 33.50256 | -92.11183 | 40956 ft | 412 kts | 271° |
| 2026-04-23 20:55 | 33.50350 | -92.18052 | 40954 ft | 412 kts | 271° |
| 2026-04-23 20:55 | 33.50438 | -92.24940 | 40951 ft | 412 kts | 271° |
| 2026-04-23 20:56 | 33.50523 | -92.31777 | 40948 ft | 410 kts | 271° |
| 2026-04-23 20:56 | 33.50603 | -92.38595 | 40947 ft | 408 kts | 271° |
| 2026-04-23 20:57 | 33.50679 | -92.45342 | 40946 ft | 407 kts | 271° |
| 2026-04-23 20:57 | 33.50752 | -92.52166 | 40934 ft | 408 kts | 271° |
| 2026-04-23 20:58 | 33.50820 | -92.58937 | 40944 ft | 409 kts | 271° |
| 2026-04-23 20:58 | 33.50886 | -92.65772 | 40937 ft | 410 kts | 271° |
| 2026-04-23 20:59 | 33.50948 | -92.72618 | 40937 ft | 410 kts | 271° |
| 2026-04-23 20:59 | 33.51006 | -92.79418 | 40934 ft | 407 kts | 271° |
| 2026-04-23 21:00 | 33.51051 | -92.85054 | 40934 ft | 406 kts | 271° |
| 2026-04-23 21:00 | 33.51102 | -92.91814 | 40931 ft | 404 kts | 271° |
| 2026-04-23 21:01 | 33.51149 | -92.98568 | 40935 ft | 406 kts | 271° |
| 2026-04-23 21:01 | 33.51193 | -93.05348 | 40931 ft | 407 kts | 271° |
| 2026-04-23 21:02 | 33.51232 | -93.12144 | 40922 ft | 409 kts | 271° |
| 2026-04-23 21:02 | 33.51266 | -93.18942 | 40922 ft | 407 kts | 271° |
| 2026-04-23 21:03 | 33.51298 | -93.25673 | 40925 ft | 405 kts | 271° |
| 2026-04-23 21:03 | 33.51326 | -93.32423 | 40928 ft | 404 kts | 271° |
| 2026-04-23 21:04 | 33.51350 | -93.39142 | 40920 ft | 403 kts | 271° |
| 2026-04-23 21:04 | 33.51370 | -93.45891 | 40927 ft | 406 kts | 271° |
| 2026-04-23 21:05 | 33.51388 | -93.52632 | 40925 ft | 407 kts | 271° |
| 2026-04-23 21:05 | 33.51400 | -93.59416 | 40930 ft | 407 kts | 271° |
| 2026-04-23 21:06 | 33.51410 | -93.66179 | 40925 ft | 404 kts | 271° |
| 2026-04-23 21:06 | 33.51416 | -93.72904 | 40922 ft | 403 kts | 271° |
| 2026-04-23 21:07 | 33.51418 | -93.79600 | 40921 ft | 402 kts | 271° |
| 2026-04-23 21:07 | 33.51416 | -93.86308 | 40920 ft | 403 kts | 271° |
| 2026-04-23 21:08 | 33.51411 | -93.92999 | 40931 ft | 404 kts | 271° |
| 2026-04-23 21:08 | 33.51403 | -93.99755 | 40924 ft | 405 kts | 271° |
| 2026-04-23 21:09 | 33.51416 | -94.06504 | 40925 ft | 404 kts | 274° |
| 2026-04-23 21:09 | 33.52120 | -94.13166 | 40928 ft | 402 kts | 279° |
| 2026-04-23 21:10 | 33.52917 | -94.19781 | 40919 ft | 400 kts | 279° |
| 2026-04-23 21:10 | 33.53725 | -94.26330 | 40915 ft | 399 kts | 279° |
| 2026-04-23 21:11 | 33.54526 | -94.32932 | 40911 ft | 401 kts | 279° |
| 2026-04-23 21:11 | 33.55329 | -94.39558 | 40906 ft | 402 kts | 278° |
| 2026-04-23 21:12 | 33.56131 | -94.46209 | 40906 ft | 403 kts | 279° |
| 2026-04-23 21:12 | 33.56928 | -94.52845 | 40904 ft | 401 kts | 278° |
| 2026-04-23 21:13 | 33.57718 | -94.59455 | 40904 ft | 400 kts | 278° |
| 2026-04-23 21:13 | 33.58503 | -94.66056 | 40895 ft | 399 kts | 278° |
| 2026-04-23 21:14 | 33.59276 | -94.72585 | 40893 ft | 397 kts | 278° |
| 2026-04-23 21:14 | 33.60051 | -94.79158 | 40890 ft | 398 kts | 278° |
| 2026-04-23 21:15 | 33.60822 | -94.85736 | 40893 ft | 398 kts | 278° |
| 2026-04-23 21:15 | 33.61592 | -94.92333 | 40892 ft | 399 kts | 278° |
| 2026-04-23 21:16 | 33.62357 | -94.98919 | 40896 ft | 399 kts | 278° |
| 2026-04-23 21:16 | 33.63116 | -95.05481 | 40888 ft | 400 kts | 278° |
| 2026-04-23 21:17 | 33.63876 | -95.12082 | 40890 ft | 398 kts | 278° |
| 2026-04-23 21:17 | 33.64628 | -95.18650 | 40884 ft | 396 kts | 278° |
| 2026-04-23 21:18 | 33.65374 | -95.25190 | 40881 ft | 395 kts | 278° |
| 2026-04-23 21:18 | 33.66114 | -95.31713 | 40880 ft | 395 kts | 278° |
| 2026-04-23 21:19 | 33.66854 | -95.38269 | 40877 ft | 397 kts | 278° |
| 2026-04-23 21:19 | 33.67593 | -95.44847 | 40880 ft | 398 kts | 278° |
| 2026-04-23 21:20 | 33.68326 | -95.51401 | 40883 ft | 399 kts | 278° |
| 2026-04-23 21:20 | 33.69059 | -95.57997 | 40879 ft | 396 kts | 278° |
| 2026-04-23 21:21 | 33.69785 | -95.64545 | 40877 ft | 394 kts | 278° |
| 2026-04-23 21:21 | 33.70501 | -95.71048 | 40869 ft | 392 kts | 278° |
| 2026-04-23 21:22 | 33.71214 | -95.77556 | 40863 ft | 394 kts | 278° |
| 2026-04-23 21:22 | 33.71927 | -95.84084 | 40859 ft | 395 kts | 278° |
| 2026-04-23 21:23 | 33.72637 | -95.90631 | 40857 ft | 395 kts | 278° |
| 2026-04-23 21:23 | 33.73340 | -95.97136 | 40853 ft | 393 kts | 278° |
| 2026-04-23 21:24 | 33.74038 | -96.03638 | 40850 ft | 391 kts | 278° |
| 2026-04-23 21:24 | 33.74730 | -96.10103 | 40843 ft | 389 kts | 278° |
| 2026-04-23 21:25 | 33.75417 | -96.16563 | 40841 ft | 390 kts | 278° |
| 2026-04-23 21:25 | 33.76102 | -96.23042 | 40838 ft | 391 kts | 278° |
| 2026-04-23 21:26 | 33.76787 | -96.29542 | 40838 ft | 392 kts | 278° |
| 2026-04-23 21:26 | 33.77469 | -96.36053 | 40840 ft | 392 kts | 278° |
| 2026-04-23 21:27 | 33.78143 | -96.42525 | 40839 ft | 389 kts | 278° |
| 2026-04-23 21:27 | 33.78806 | -96.48918 | 40831 ft | 387 kts | 278° |
| 2026-04-23 21:28 | 33.79465 | -96.55316 | 40831 ft | 385 kts | 278° |
| 2026-04-23 21:28 | 33.80122 | -96.61705 | 40832 ft | 385 kts | 278° |
| 2026-04-23 21:29 | 33.80775 | -96.68110 | 40832 ft | 386 kts | 278° |
| 2026-04-23 21:29 | 33.81427 | -96.74526 | 40830 ft | 387 kts | 278° |
| 2026-04-23 21:30 | 33.82072 | -96.80905 | 40829 ft | 385 kts | 278° |
| 2026-04-23 21:30 | 33.82713 | -96.87290 | 40820 ft | 383 kts | 278° |
| 2026-04-23 21:31 | 33.83345 | -96.93620 | 40809 ft | 380 kts | 278° |
| 2026-04-23 21:31 | 33.83973 | -96.99930 | 40799 ft | 379 kts | 278° |
| 2026-04-23 21:32 | 33.84598 | -97.06242 | 40801 ft | 381 kts | 278° |
| 2026-04-23 21:32 | 33.85220 | -97.12575 | 40803 ft | 382 kts | 278° |
| 2026-04-23 21:33 | 33.85841 | -97.18924 | 40803 ft | 381 kts | 278° |
| 2026-04-23 21:33 | 33.86455 | -97.25222 | 40802 ft | 377 kts | 278° |
| 2026-04-23 21:34 | 33.87059 | -97.31474 | 40792 ft | 375 kts | 278° |
| 2026-04-23 21:34 | 33.87656 | -97.37666 | 40787 ft | 375 kts | 278° |
| 2026-04-23 21:35 | 33.88254 | -97.43913 | 40778 ft | 376 kts | 278° |
| 2026-04-23 21:35 | 33.88851 | -97.50179 | 40769 ft | 376 kts | 278° |
| 2026-04-23 21:36 | 33.89738 | -97.59551 | 40759 ft | 374 kts | 278° |
| 2026-04-23 21:37 | 33.90309 | -97.65624 | 40751 ft | 373 kts | 277° |
| 2026-04-23 21:37 | 33.90884 | -97.71777 | 40748 ft | 372 kts | 278° |
| 2026-04-23 21:38 | 33.91458 | -97.77955 | 40742 ft | 370 kts | 278° |
| 2026-04-23 21:38 | 33.92027 | -97.84107 | 40736 ft | 369 kts | 277° |
| 2026-04-23 21:39 | 33.92592 | -97.90250 | 40729 ft | 369 kts | 277° |
| 2026-04-23 21:39 | 33.93155 | -97.96413 | 40726 ft | 370 kts | 277° |
| 2026-04-23 21:40 | 33.93717 | -98.02596 | 40719 ft | 371 kts | 277° |
| 2026-04-23 21:40 | 33.94274 | -98.08756 | 40717 ft | 372 kts | 277° |
| 2026-04-23 21:41 | 33.94828 | -98.14927 | 40717 ft | 370 kts | 277° |
| 2026-04-23 21:41 | 33.95377 | -98.21070 | 40712 ft | 368 kts | 277° |
| 2026-04-23 21:42 | 33.95922 | -98.27199 | 40710 ft | 366 kts | 277° |
| 2026-04-23 21:42 | 33.96461 | -98.33296 | 40708 ft | 367 kts | 277° |
| 2026-04-23 21:43 | 33.97000 | -98.39423 | 40713 ft | 368 kts | 277° |
| 2026-04-23 21:43 | 33.97533 | -98.45523 | 40715 ft | 369 kts | 277° |
| 2026-04-23 21:44 | 33.98068 | -98.51683 | 40719 ft | 369 kts | 277° |
| 2026-04-23 21:44 | 33.98542 | -98.57834 | 40630 ft | 370 kts | 274° |
| 2026-04-23 21:44 | 33.98534 | -98.60949 | 40331 ft | 371 kts | 270° |
| 2026-04-23 21:45 | 33.98322 | -98.64019 | 39968 ft | 364 kts | 267° |
| 2026-04-23 21:45 | 33.98048 | -98.67021 | 39590 ft | 355 kts | 268° |
| 2026-04-23 21:45 | 33.97801 | -98.69949 | 39203 ft | 348 kts | 268° |
| 2026-04-23 21:45 | 33.97552 | -98.72820 | 38827 ft | 341 kts | 268° |
| 2026-04-23 21:46 | 33.97301 | -98.75625 | 38450 ft | 331 kts | 269° |
| 2026-04-23 21:46 | 33.97058 | -98.78362 | 38019 ft | 326 kts | 269° |
| 2026-04-23 21:46 | 33.96824 | -98.81047 | 37574 ft | 328 kts | 268° |
| 2026-04-23 21:46 | 33.96582 | -98.83803 | 37142 ft | 333 kts | 268° |
| 2026-04-23 21:47 | 33.96332 | -98.86584 | 36716 ft | 333 kts | 268° |
| 2026-04-23 21:47 | 33.96083 | -98.89341 | 36295 ft | 329 kts | 268° |
| 2026-04-23 21:47 | 33.95840 | -98.92067 | 35882 ft | 326 kts | 268° |
| 2026-04-23 21:47 | 33.95599 | -98.94766 | 35480 ft | 323 kts | 267° |
| 2026-04-23 21:48 | 33.95358 | -98.97436 | 35087 ft | 320 kts | 267° |
| 2026-04-23 21:48 | 33.95119 | -99.00093 | 34696 ft | 318 kts | 267° |
| 2026-04-23 21:48 | 33.94960 | -99.01853 | 34438 ft | 317 kts | 267° |
| 2026-04-23 21:48 | 33.94645 | -99.05337 | 33934 ft | 314 kts | 266° |
| 2026-04-23 21:49 | 33.94407 | -99.07952 | 33550 ft | 313 kts | 266° |
| 2026-04-23 21:49 | 33.94170 | -99.10552 | 33125 ft | 312 kts | 266° |
| 2026-04-23 21:49 | 33.93935 | -99.13138 | 32707 ft | 311 kts | 266° |
| 2026-04-23 21:49 | 33.93698 | -99.15732 | 32284 ft | 313 kts | 266° |
| 2026-04-23 21:50 | 33.93458 | -99.18348 | 31884 ft | 315 kts | 266° |
| 2026-04-23 21:50 | 33.93298 | -99.20084 | 31618 ft | 315 kts | 266° |
| 2026-04-23 21:50 | 33.93057 | -99.22702 | 31223 ft | 314 kts | 266° |
| 2026-04-23 21:50 | 33.92816 | -99.25316 | 30832 ft | 313 kts | 266° |
| 2026-04-23 21:51 | 33.92575 | -99.27911 | 30465 ft | 311 kts | 265° |
| 2026-04-23 21:51 | 33.92337 | -99.30492 | 30104 ft | 310 kts | 265° |
| 2026-04-23 21:51 | 33.92098 | -99.33061 | 29754 ft | 309 kts | 265° |
| 2026-04-23 21:51 | 33.91859 | -99.35628 | 29354 ft | 308 kts | 265° |
| 2026-04-23 21:52 | 33.91620 | -99.38194 | 28971 ft | 310 kts | 265° |
| 2026-04-23 21:52 | 33.91377 | -99.40791 | 28593 ft | 313 kts | 265° |
| 2026-04-23 21:52 | 33.91133 | -99.43401 | 28229 ft | 313 kts | 265° |
| 2026-04-23 21:52 | 33.90888 | -99.45996 | 27886 ft | 311 kts | 265° |
| 2026-04-23 21:53 | 33.90644 | -99.48582 | 27545 ft | 309 kts | 265° |
| 2026-04-23 21:53 | 33.90403 | -99.51146 | 27215 ft | 308 kts | 265° |
| 2026-04-23 21:53 | 33.90161 | -99.53707 | 26883 ft | 307 kts | 265° |
| 2026-04-23 21:53 | 33.89919 | -99.56254 | 26554 ft | 306 kts | 264° |
| 2026-04-23 21:54 | 33.89677 | -99.58797 | 26232 ft | 306 kts | 264° |
| 2026-04-23 21:54 | 33.89436 | -99.61335 | 25918 ft | 305 kts | 264° |
| 2026-04-23 21:54 | 33.89193 | -99.63870 | 25600 ft | 304 kts | 264° |
| 2026-04-23 21:54 | 33.88951 | -99.66406 | 25285 ft | 304 kts | 264° |
| 2026-04-23 21:55 | 33.88712 | -99.68901 | 24986 ft | 304 kts | 264° |
| 2026-04-23 21:55 | 33.88468 | -99.71430 | 24680 ft | 304 kts | 264° |
| 2026-04-23 21:55 | 33.88226 | -99.73960 | 24379 ft | 304 kts | 264° |
| 2026-04-23 21:55 | 33.87981 | -99.76492 | 24076 ft | 304 kts | 264° |
| 2026-04-23 21:56 | 33.87738 | -99.79015 | 23785 ft | 303 kts | 264° |
| 2026-04-23 21:56 | 33.87493 | -99.81530 | 23488 ft | 303 kts | 263° |
| 2026-04-23 21:56 | 33.87249 | -99.84041 | 23196 ft | 302 kts | 263° |
| 2026-04-23 21:56 | 33.87004 | -99.86554 | 22851 ft | 301 kts | 263° |
| 2026-04-23 21:57 | 33.86761 | -99.89051 | 22504 ft | 300 kts | 263° |
| 2026-04-23 21:57 | 33.86519 | -99.91532 | 22167 ft | 298 kts | 263° |
| 2026-04-23 21:57 | 33.86276 | -99.94004 | 21825 ft | 296 kts | 263° |
| 2026-04-23 21:57 | 33.86035 | -99.96453 | 21489 ft | 294 kts | 263° |
| 2026-04-23 21:58 | 33.85796 | -99.98890 | 21164 ft | 292 kts | 263° |
| 2026-04-23 21:58 | 33.85558 | -100.01313 | 20835 ft | 291 kts | 263° |
| 2026-04-23 21:58 | 33.85323 | -100.03695 | 20517 ft | 289 kts | 263° |
| 2026-04-23 21:58 | 33.85085 | -100.06089 | 20196 ft | 287 kts | 264° |
| 2026-04-23 21:59 | 33.84849 | -100.08470 | 19878 ft | 286 kts | 263° |
| 2026-04-23 21:59 | 33.84614 | -100.10838 | 19568 ft | 284 kts | 264° |
| 2026-04-23 21:59 | 33.84379 | -100.13198 | 19261 ft | 284 kts | 264° |
| 2026-04-23 22:00 | 33.83909 | -100.17899 | 18647 ft | 282 kts | 264° |
| 2026-04-23 22:00 | 33.83676 | -100.20231 | 18347 ft | 280 kts | 264° |
| 2026-04-23 22:00 | 33.83443 | -100.22555 | 18049 ft | 278 kts | 264° |
| 2026-04-23 22:00 | 33.83214 | -100.24834 | 17750 ft | 277 kts | 264° |
| 2026-04-23 22:01 | 33.82984 | -100.27127 | 17458 ft | 277 kts | 263° |
| 2026-04-23 22:01 | 33.82751 | -100.29430 | 17180 ft | 278 kts | 263° |
| 2026-04-23 22:01 | 33.82518 | -100.31735 | 16892 ft | 277 kts | 263° |
| 2026-04-23 22:01 | 33.82287 | -100.34022 | 16611 ft | 275 kts | 263° |
| 2026-04-23 22:02 | 33.82054 | -100.36300 | 16334 ft | 273 kts | 263° |
| 2026-04-23 22:02 | 33.81825 | -100.38562 | 16053 ft | 273 kts | 263° |
| 2026-04-23 22:02 | 33.81595 | -100.40804 | 15806 ft | 269 kts | 263° |
| 2026-04-23 22:02 | 33.81594 | -100.40813 | 15804 ft | 269 kts | 263° |
| 2026-04-23 22:03 | 33.81501 | -100.41785 | 15697 ft | 271 kts | 263° |
| 2026-04-23 22:03 | 33.81266 | -100.44044 | 15459 ft | 272 kts | 263° |
| 2026-04-23 22:03 | 33.81035 | -100.46271 | 15216 ft | 272 kts | 263° |
| 2026-04-23 22:03 | 33.80807 | -100.48519 | 14978 ft | 271 kts | 263° |
| 2026-04-23 22:04 | 33.80578 | -100.50766 | 14739 ft | 270 kts | 263° |
| 2026-04-23 22:04 | 33.80348 | -100.52999 | 14498 ft | 269 kts | 263° |
| 2026-04-23 22:04 | 33.80117 | -100.55229 | 14258 ft | 268 kts | 263° |
| 2026-04-23 22:04 | 33.79887 | -100.57447 | 14027 ft | 267 kts | 263° |
| 2026-04-23 22:05 | 33.79660 | -100.59662 | 13799 ft | 267 kts | 263° |
| 2026-04-23 22:05 | 33.79430 | -100.61870 | 13563 ft | 266 kts | 263° |
| 2026-04-23 22:05 | 33.79202 | -100.64073 | 13322 ft | 265 kts | 263° |
| 2026-04-23 22:05 | 33.78972 | -100.66278 | 13063 ft | 264 kts | 263° |
| 2026-04-23 22:06 | 33.78744 | -100.68464 | 12809 ft | 264 kts | 263° |
| 2026-04-23 22:06 | 33.78516 | -100.70670 | 12551 ft | 266 kts | 262° |
| 2026-04-23 22:06 | 33.78285 | -100.72869 | 12305 ft | 264 kts | 262° |
| 2026-04-23 22:06 | 33.78057 | -100.75051 | 12053 ft | 263 kts | 262° |
| 2026-04-23 22:07 | 33.77830 | -100.77228 | 11806 ft | 262 kts | 262° |
| 2026-04-23 22:07 | 33.77601 | -100.79382 | 11560 ft | 263 kts | 262° |
| 2026-04-23 22:07 | 33.77372 | -100.81562 | 11320 ft | 263 kts | 262° |
| 2026-04-23 22:07 | 33.77143 | -100.83744 | 11078 ft | 264 kts | 262° |
| 2026-04-23 22:08 | 33.76912 | -100.85924 | 10832 ft | 262 kts | 262° |
| 2026-04-23 22:08 | 33.76683 | -100.88095 | 10592 ft | 261 kts | 262° |
| 2026-04-23 22:08 | 33.76436 | -100.90258 | 10357 ft | 261 kts | 259° |
| 2026-04-23 22:08 | 33.76051 | -100.92392 | 10119 ft | 260 kts | 257° |
| 2026-04-23 22:09 | 33.75628 | -100.94506 | 9887 ft | 260 kts | 256° |
| 2026-04-23 22:09 | 33.75200 | -100.96615 | 9654 ft | 260 kts | 256° |
| 2026-04-23 22:09 | 33.74771 | -100.98737 | 9419 ft | 262 kts | 256° |
| 2026-04-23 22:09 | 33.74349 | -101.00833 | 9161 ft | 260 kts | 256° |
| 2026-04-23 22:10 | 33.73934 | -101.02944 | 8909 ft | 261 kts | 256° |
| 2026-04-23 22:10 | 33.73521 | -101.05069 | 8661 ft | 261 kts | 256° |
| 2026-04-23 22:10 | 33.73115 | -101.07180 | 8411 ft | 260 kts | 256° |
| 2026-04-23 22:10 | 33.72712 | -101.09294 | 8162 ft | 258 kts | 256° |
| 2026-04-23 22:11 | 33.72312 | -101.11389 | 7918 ft | 257 kts | 256° |
| 2026-04-23 22:11 | 33.71922 | -101.13483 | 7677 ft | 258 kts | 256° |
| 2026-04-23 22:11 | 33.71528 | -101.15594 | 7439 ft | 259 kts | 256° |
| 2026-04-23 22:11 | 33.71125 | -101.17699 | 7199 ft | 259 kts | 255° |
| 2026-04-23 22:12 | 33.70737 | -101.19817 | 6959 ft | 258 kts | 256° |
| 2026-04-23 22:12 | 33.70361 | -101.21933 | 6715 ft | 260 kts | 256° |
| 2026-04-23 22:12 | 33.69972 | -101.24046 | 6488 ft | 258 kts | 256° |
| 2026-04-23 22:12 | 33.69596 | -101.26133 | 6253 ft | 255 kts | 256° |
| 2026-04-23 22:13 | 33.69218 | -101.28224 | 6024 ft | 256 kts | 256° |
| 2026-04-23 22:13 | 33.68904 | -101.30319 | 5776 ft | 255 kts | 261° |
| 2026-04-23 22:13 | 33.68756 | -101.32413 | 5529 ft | 255 kts | 263° |
| 2026-04-23 22:13 | 33.68590 | -101.34533 | 5294 ft | 256 kts | 260° |
| 2026-04-23 22:14 | 33.68377 | -101.36647 | 5052 ft | 256 kts | 261° |
| 2026-04-23 22:14 | 33.68164 | -101.38765 | 5000 ft | 256 kts | 261° |
| 2026-04-23 22:14 | 33.67966 | -101.40874 | 5012 ft | 253 kts | 261° |
| 2026-04-23 22:14 | 33.67818 | -101.42431 | 5015 ft | 255 kts | 261° |
| 2026-04-23 22:15 | 33.67615 | -101.44561 | 5020 ft | 254 kts | 260° |
| 2026-04-23 22:15 | 33.67413 | -101.46672 | 5031 ft | 255 kts | 261° |
| 2026-04-23 22:15 | 33.67202 | -101.48783 | 5031 ft | 254 kts | 261° |
| 2026-04-23 22:15 | 33.66998 | -101.50905 | 5043 ft | 256 kts | 261° |
| 2026-04-23 22:16 | 33.66801 | -101.53001 | 5054 ft | 251 kts | 260° |
| 2026-04-23 22:16 | 33.66597 | -101.55115 | 5062 ft | 257 kts | 261° |
| 2026-04-23 22:16 | 33.66390 | -101.57226 | 5068 ft | 254 kts | 261° |
| 2026-04-23 22:16 | 33.66300 | -101.59368 | 5077 ft | 255 kts | 268° |
| 2026-04-23 22:17 | 33.66332 | -101.61393 | 5075 ft | 235 kts | 266° |
| 2026-04-23 22:17 | 33.66310 | -101.63288 | 5081 ft | 228 kts | 266° |
| 2026-04-23 22:17 | 33.66289 | -101.65187 | 5096 ft | 226 kts | 266° |
| 2026-04-23 22:17 | 33.66297 | -101.67034 | 5097 ft | 215 kts | 268° |
| 2026-04-23 22:18 | 33.66284 | -101.68735 | 5100 ft | 192 kts | 265° |
| 2026-04-23 22:18 | 33.66266 | -101.70287 | 4985 ft | 179 kts | 267° |
| 2026-04-23 22:18 | 33.66293 | -101.71718 | 4727 ft | 159 kts | 265° |
| 2026-04-23 22:18 | 33.66328 | -101.73002 | 4454 ft | 146 kts | 266° |
| 2026-04-23 22:19 | 33.66341 | -101.74109 | 4205 ft | 129 kts | 262° |
| 2026-04-23 22:19 | 33.66303 | -101.75185 | 4079 ft | 130 kts | 262° |
| 2026-04-23 22:19 | 33.66256 | -101.76282 | 3934 ft | 135 kts | 265° |
| 2026-04-23 22:19 | 33.66252 | -101.77403 | 3728 ft | 134 kts | 267° |
| 2026-04-23 22:20 | 33.66251 | -101.78531 | 3515 ft | 140 kts | 267° |
| 2026-04-23 22:20 | 33.66235 | -101.79716 | 3314 ft | 142 kts | 266° |
| 2026-04-23 22:20 | 33.66226 | -101.80727 | 3286 ft | 94 kts | 270° |
| 2026-04-23 22:20 | 33.66227 | -101.81324 | 3287 ft | 52 kts | 270° |
| 2026-04-23 22:21 | 33.66226 | -101.81682 | 3289 ft | 36 kts | 270° |
| 2026-04-23 22:21 | 33.66224 | -101.81952 | 3289 ft | 28 kts | 269° |
| 2026-04-23 22:21 | 33.66223 | -101.82161 | 3288 ft | 23 kts | 269° |
| 2026-04-23 22:21 | 33.66182 | -101.82267 | 3288 ft | 9 kts | 188° |
| 2026-04-23 22:22 | 33.66108 | -101.82268 | 3287 ft | 14 kts | 180° |
| 2026-04-23 22:22 | 33.66033 | -101.82305 | 3287 ft | 8 kts | 253° |
| 2026-04-23 22:22 | 33.66029 | -101.82423 | 3287 ft | 23 kts | 270° |
| 2026-04-23 22:22 | 33.66029 | -101.82651 | 3287 ft | 28 kts | 269° |
| 2026-04-23 22:23 | 33.66027 | -101.82881 | 3285 ft | 26 kts | 269° |
| 2026-04-23 22:23 | 33.66026 | -101.83067 | 3287 ft | 15 kts | 269° |
| 2026-04-23 22:23 | 33.65995 | -101.83153 | 3287 ft | 8 kts | 264° |
| 2026-04-23 22:23 | 33.65975 | -101.83201 | 3287 ft | 8 kts | 208° |
| 2026-04-23 22:24 | 33.65943 | -101.83250 | 3287 ft | 5 kts | 238° |
| 2026-04-23 22:24 | 33.65916 | -101.83258 | 3287 ft | 0 kts | 183° |